createdAt,value
2022-12-15T00:02:20.227Z,54.10
2022-12-15T00:05:15.356Z,54.40
2022-12-15T00:08:05.421Z,55.90
2022-12-15T00:10:55.458Z,55.20
2022-12-15T00:13:45.405Z,56.00
2022-12-15T00:16:35.684Z,55.00
2022-12-15T00:19:28.015Z,55.50
2022-12-15T00:22:18.455Z,57.40
2022-12-15T00:25:08.320Z,56.80
2022-12-15T00:27:58.236Z,57.70
2022-12-15T00:30:50.024Z,55.20
2022-12-15T00:33:40.448Z,56.90
2022-12-15T00:36:30.621Z,56.90
2022-12-15T00:39:10.447Z,57.80
2022-12-15T00:41:43.336Z,57.90
2022-12-15T00:44:20.332Z,57.90
2022-12-15T00:46:56.316Z,57.90
2022-12-15T00:49:48.252Z,77.20
2022-12-15T00:52:40.270Z,56.10
2022-12-15T00:55:33.785Z,58.00
2022-12-15T00:58:26.442Z,56.70
2022-12-15T01:01:16.372Z,57.10
2022-12-15T01:04:06.313Z,57.20
2022-12-15T01:06:56.530Z,55.90
2022-12-15T01:09:46.668Z,57.50
2022-12-15T01:12:36.620Z,58.50
2022-12-15T01:15:28.153Z,58.90
2022-12-15T01:18:18.513Z,58.90
2022-12-15T01:20:59.746Z,58.80
2022-12-15T01:23:32.726Z,59.10
2022-12-15T01:26:08.930Z,58.40
2022-12-15T01:28:44.563Z,61.10
2022-12-15T01:31:17.554Z,60.20
2022-12-15T01:33:54.426Z,58.70
2022-12-15T01:36:28.850Z,59.10
2022-12-15T01:39:02.037Z,58.00
2022-12-15T01:41:34.195Z,59.80
2022-12-15T01:44:20.925Z,60.30
2022-12-15T01:46:56.626Z,58.60
2022-12-15T01:49:32.650Z,58.30
2022-12-15T01:52:16.541Z,59.80
2022-12-15T01:54:52.381Z,58.00
2022-12-15T01:57:30.194Z,58.30
2022-12-15T02:00:09.684Z,59.10
2022-12-15T02:02:45.153Z,60.40
2022-12-15T02:05:21.727Z,58.50
2022-12-15T02:07:53.939Z,58.80
2022-12-15T02:10:29.988Z,59.50
2022-12-15T02:13:11.234Z,58.40
2022-12-15T02:15:50.259Z,60.20
2022-12-15T02:18:33.525Z,62.60
2022-12-15T02:21:11.354Z,59.30
2022-12-15T02:24:11.652Z,61.10
2022-12-15T02:27:08.804Z,60.40
2022-12-15T02:30:06.995Z,62.00
2022-12-15T02:32:44.919Z,61.90
2022-12-15T02:35:23.757Z,65.50
2022-12-15T02:37:58.821Z,65.50
2022-12-15T02:40:31.240Z,66.60
2022-12-15T02:43:06.704Z,64.30
2022-12-15T02:45:47.542Z,66.50
2022-12-15T02:48:31.184Z,65.60
2022-12-15T02:51:19.985Z,67.20
2022-12-15T02:54:08.015Z,68.10
2022-12-15T02:56:50.202Z,64.10
2022-12-15T02:59:30.837Z,61.90
2022-12-15T03:02:09.443Z,59.80
2022-12-15T03:04:44.076Z,61.80
2022-12-15T03:07:17.665Z,62.80
2022-12-15T03:09:50.108Z,61.20
2022-12-15T03:12:22.266Z,63.10
2022-12-15T03:14:58.064Z,64.90
2022-12-15T03:17:30.451Z,64.20
2022-12-15T03:20:02.955Z,64.80
2022-12-15T03:22:35.178Z,64.30
2022-12-15T03:25:08.840Z,60.40
2022-12-15T03:27:45.755Z,54.50
2022-12-15T03:33:09.796Z,54.90
2022-12-15T03:35:42.375Z,53.10
2022-12-15T03:38:15.765Z,54.90
2022-12-15T03:40:48.293Z,52.80
2022-12-15T03:43:20.566Z,54.00
2022-12-15T03:45:52.908Z,56.80
2022-12-15T03:48:27.509Z,59.20
2022-12-15T03:51:02.668Z,61.30
2022-12-15T03:53:35.147Z,62.10
2022-12-15T03:56:08.054Z,62.20
2022-12-15T03:58:40.502Z,64.50
2022-12-15T04:01:29.088Z,64.60
2022-12-15T04:04:02.626Z,64.50
2022-12-15T04:06:35.004Z,61.50
2022-12-15T04:09:12.861Z,63.30
2022-12-15T04:11:44.918Z,63.40
2022-12-15T04:14:17.401Z,62.70
2022-12-15T04:16:49.596Z,57.80
2022-12-15T04:19:39.477Z,55.40
2022-12-15T04:22:14.986Z,57.40
2022-12-15T04:25:07.855Z,59.70
2022-12-15T04:28:01.538Z,57.10
2022-12-15T04:30:52.226Z,55.30
2022-12-15T04:33:45.177Z,52.60
2022-12-15T04:36:38.250Z,49.80
2022-12-15T04:39:30.962Z,52.70
2022-12-15T04:42:21.991Z,55.30
2022-12-15T04:45:20.630Z,57.00
2022-12-15T04:48:15.543Z,56.90
2022-12-15T04:51:06.681Z,58.90
2022-12-15T04:53:56.782Z,59.30
2022-12-15T04:56:46.805Z,58.50
2022-12-15T04:59:40.076Z,62.00
2022-12-15T05:02:30.635Z,59.90
2022-12-15T05:05:21.360Z,60.80
2022-12-15T05:08:11.818Z,60.40
2022-12-15T05:11:01.891Z,60.80
2022-12-15T05:13:52.649Z,61.70
2022-12-15T05:16:42.517Z,61.50
2022-12-15T05:19:35.052Z,60.60
2022-12-15T05:22:24.998Z,61.50
2022-12-15T05:25:14.597Z,60.30
2022-12-15T05:28:04.620Z,59.10
2022-12-15T05:30:55.404Z,60.80
2022-12-15T05:33:27.685Z,59.70
2022-12-15T05:36:00.358Z,61.20
2022-12-15T05:38:32.607Z,61.40
2022-12-15T05:41:05.693Z,60.50
2022-12-15T05:43:40.323Z,61.50
2022-12-15T05:46:12.619Z,61.00
2022-12-15T05:48:44.844Z,61.30
2022-12-15T05:51:17.351Z,62.00
2022-12-15T05:53:49.506Z,63.40
2022-12-15T05:56:21.675Z,62.20
2022-12-15T05:58:53.894Z,61.50
2022-12-15T06:01:26.997Z,62.20
2022-12-15T06:04:00.416Z,65.60
2022-12-15T06:06:32.607Z,63.70
2022-12-15T06:09:04.809Z,62.90
2022-12-15T06:11:39.974Z,64.80
2022-12-15T06:14:12.815Z,63.30
2022-12-15T06:16:50.958Z,64.40
2022-12-15T06:19:24.655Z,72.10
2022-12-15T06:21:56.998Z,81.30
2022-12-15T06:24:29.560Z,84.00
2022-12-15T06:27:01.924Z,76.40
2022-12-15T06:29:36.536Z,69.80
2022-12-15T06:32:11.932Z,72.30
2022-12-15T06:34:46.789Z,79.10
2022-12-15T06:37:18.881Z,72.40
2022-12-15T06:39:54.223Z,75.50
2022-12-15T06:42:26.671Z,62.10
2022-12-15T06:44:59.383Z,62.80
2022-12-15T06:47:31.825Z,64.30
2022-12-15T06:50:04.167Z,60.90
2022-12-15T06:55:24.983Z,71.10
2022-12-15T06:58:01.924Z,64.50
2022-12-15T07:00:36.781Z,63.50
2022-12-15T07:03:12.236Z,63.50
2022-12-15T07:05:44.987Z,63.00
2022-12-15T07:08:18.502Z,60.30
2022-12-15T07:10:53.237Z,63.90
2022-12-15T07:13:25.880Z,61.70
2022-12-15T07:16:01.472Z,61.20
2022-12-15T07:18:34.000Z,64.00
2022-12-15T07:21:08.004Z,61.60
2022-12-15T07:23:54.156Z,59.60
2022-12-15T07:26:27.913Z,59.90
2022-12-15T07:29:02.635Z,63.50
2022-12-15T07:31:38.229Z,65.90
2022-12-15T07:34:13.337Z,77.70
2022-12-15T07:36:51.494Z,67.50
2022-12-15T07:39:29.990Z,67.60
2022-12-15T07:42:02.887Z,78.00
2022-12-15T07:44:35.073Z,70.70
2022-12-15T07:47:08.152Z,67.90
2022-12-15T07:49:40.254Z,65.10
2022-12-15T07:52:14.101Z,67.10
2022-12-15T07:54:46.756Z,74.20
2022-12-15T07:57:19.368Z,71.10
2022-12-15T07:59:51.755Z,68.20
2022-12-15T08:02:24.180Z,70.80
2022-12-15T08:04:56.796Z,80.30
2022-12-15T08:07:28.884Z,65.30
2022-12-15T08:10:01.090Z,66.50
2022-12-15T08:12:38.377Z,68.80
2022-12-15T08:15:13.712Z,74.20
2022-12-15T08:17:47.171Z,75.10
2022-12-15T08:20:19.417Z,67.80
2022-12-15T08:22:52.594Z,73.20
2022-12-15T08:25:25.238Z,69.80
2022-12-15T08:27:57.449Z,68.00
2022-12-15T08:30:30.267Z,61.10
2022-12-15T08:33:02.360Z,62.00
2022-12-15T08:35:55.670Z,60.70
2022-12-15T08:38:26.627Z,68.80
2022-12-15T08:40:59.085Z,85.40
2022-12-15T08:43:31.576Z,67.60
2022-12-15T08:46:06.909Z,62.80
2022-12-15T08:48:39.673Z,76.30
2022-12-15T08:51:12.256Z,69.90
2022-12-15T08:53:45.107Z,74.30
2022-12-15T08:56:22.246Z,70.90
2022-12-15T08:58:59.196Z,65.40
2022-12-15T09:01:33.505Z,69.90
2022-12-15T09:04:08.935Z,64.10
2022-12-15T09:06:41.268Z,66.60
2022-12-15T09:09:15.020Z,163.60
2022-12-15T09:11:47.070Z,85.80
2022-12-15T09:14:25.500Z,74.20
2022-12-15T09:16:59.951Z,80.70
2022-12-15T09:19:35.135Z,90.90
2022-12-15T09:22:07.949Z,86.00
2022-12-15T09:24:40.493Z,73.90
2022-12-15T09:27:12.608Z,75.00
2022-12-15T09:29:44.731Z,92.70
2022-12-15T09:32:17.151Z,81.70
2022-12-15T09:34:49.385Z,76.10
2022-12-15T09:37:23.082Z,81.00
2022-12-15T09:39:55.323Z,71.80
2022-12-15T09:42:30.209Z,95.50
2022-12-15T09:45:09.091Z,83.80
2022-12-15T09:47:51.214Z,82.50
2022-12-15T09:50:34.740Z,88.70
2022-12-15T09:53:45.418Z,84.30
2022-12-15T09:56:14.792Z,85.20
2022-12-15T09:58:55.732Z,81.00
2022-12-15T10:01:37.176Z,94.70
2022-12-15T10:04:20.168Z,108.70
2022-12-15T10:06:59.885Z,107.10
2022-12-15T10:09:32.509Z,92.00
2022-12-15T10:12:08.516Z,88.20
2022-12-15T10:14:44.236Z,80.70
2022-12-15T10:17:24.240Z,84.70
2022-12-15T10:20:07.774Z,73.50
2022-12-15T10:22:40.549Z,80.80
2022-12-15T10:25:25.434Z,78.10
2022-12-15T10:28:23.160Z,80.40
2022-12-15T10:31:00.592Z,82.40
2022-12-15T10:33:36.228Z,79.10
2022-12-15T10:36:14.108Z,84.40
2022-12-15T10:38:50.711Z,83.70
2022-12-15T10:41:26.882Z,78.40
2022-12-15T10:43:59.489Z,77.20
2022-12-15T10:46:33.313Z,76.10
2022-12-15T10:49:24.724Z,75.10
2022-12-15T10:52:02.570Z,75.70
2022-12-15T10:54:44.863Z,72.50
2022-12-15T10:57:21.067Z,98.20
2022-12-15T10:59:53.566Z,78.60
2022-12-15T11:02:37.166Z,79.20
2022-12-15T11:05:21.489Z,87.90
2022-12-15T11:07:56.661Z,90.90
2022-12-15T11:10:54.502Z,79.20
2022-12-15T11:13:33.001Z,77.10
2022-12-15T11:16:18.041Z,82.40
2022-12-15T11:18:54.901Z,80.00
2022-12-15T11:21:28.986Z,84.40
2022-12-15T11:24:13.725Z,85.90
2022-12-15T11:26:56.334Z,95.50
2022-12-15T11:29:34.876Z,109.60
2022-12-15T11:32:07.820Z,98.50
2022-12-15T11:34:43.027Z,98.60
2022-12-15T11:37:36.908Z,81.60
2022-12-15T11:40:34.386Z,80.70
2022-12-15T11:43:34.299Z,86.50
2022-12-15T11:46:19.955Z,92.10
2022-12-15T11:49:14.058Z,89.20
2022-12-15T11:51:53.749Z,96.80
2022-12-15T11:54:36.522Z,97.90
2022-12-15T11:57:32.666Z,97.20
2022-12-15T12:00:10.046Z,99.70
2022-12-15T12:03:03.556Z,101.60
2022-12-15T12:05:52.477Z,85.30
2022-12-15T12:08:40.461Z,93.40
2022-12-15T12:11:15.917Z,96.60
2022-12-15T12:14:05.333Z,85.60
2022-12-15T12:16:45.497Z,87.30
2022-12-15T12:19:21.062Z,92.00
2022-12-15T12:22:00.418Z,86.50
2022-12-15T12:24:39.872Z,84.80
2022-12-15T12:27:25.536Z,85.90
2022-12-15T12:30:03.774Z,90.30
2022-12-15T12:32:45.340Z,87.00
2022-12-15T12:35:31.937Z,88.50
2022-12-15T12:38:20.319Z,91.70
2022-12-15T12:41:03.758Z,99.20
2022-12-15T12:43:37.661Z,105.70
2022-12-15T12:46:18.874Z,98.10
2022-12-15T12:48:56.238Z,95.40
2022-12-15T12:51:33.149Z,106.10
2022-12-15T12:54:26.339Z,105.70
2022-12-15T12:56:58.738Z,93.90
2022-12-15T12:59:41.818Z,113.10
2022-12-15T13:02:47.646Z,109.50
2022-12-15T13:05:34.001Z,113.20
2022-12-15T13:08:51.337Z,125.00
2022-12-15T13:12:14.994Z,107.80
2022-12-15T13:14:56.637Z,108.80
2022-12-15T13:17:41.682Z,98.30
2022-12-15T13:20:27.000Z,97.30
2022-12-15T13:23:37.532Z,91.80
2022-12-15T13:26:19.474Z,116.50
2022-12-15T13:28:58.221Z,125.00
2022-12-15T13:31:42.021Z,128.90
2022-12-15T13:34:22.676Z,133.10
2022-12-15T13:37:36.900Z,111.80
2022-12-15T13:40:42.545Z,118.60
2022-12-15T13:43:38.576Z,103.90
2022-12-15T13:46:19.580Z,96.10
2022-12-15T13:48:56.821Z,93.40
2022-12-15T13:51:35.310Z,88.60
2022-12-15T13:54:18.137Z,96.50
2022-12-15T13:56:56.851Z,100.30
2022-12-15T13:59:42.617Z,93.70
2022-12-15T14:02:29.447Z,89.70
2022-12-15T14:05:16.114Z,94.00
2022-12-15T14:07:54.767Z,90.30
2022-12-15T14:10:35.435Z,105.00
2022-12-15T14:16:19.289Z,83.80
2022-12-15T14:32:20.086Z,64.40
2022-12-15T14:34:55.413Z,65.10
2022-12-15T14:37:27.821Z,67.00
2022-12-15T14:40:00.455Z,79.70
2022-12-15T14:42:33.635Z,72.80
2022-12-15T14:45:06.869Z,74.60
2022-12-15T14:47:40.522Z,80.60
2022-12-15T14:53:18.866Z,68.60
2022-12-15T14:55:51.485Z,69.10
2022-12-15T14:58:31.453Z,76.70
2022-12-15T15:01:07.299Z,74.80
2022-12-15T15:03:40.941Z,70.50
2022-12-15T15:06:20.985Z,64.50
2022-12-15T15:08:56.884Z,72.50
2022-12-15T15:11:34.090Z,91.90
2022-12-15T15:14:13.960Z,68.20
2022-12-15T15:16:46.807Z,56.80
2022-12-15T15:19:23.577Z,57.60
2022-12-15T15:21:55.745Z,56.50
2022-12-15T15:24:35.269Z,59.20
2022-12-15T15:27:27.810Z,58.50
2022-12-15T15:30:21.001Z,71.00
2022-12-15T15:32:56.620Z,68.30
2022-12-15T15:35:35.203Z,70.90
2022-12-15T15:38:18.712Z,58.20
2022-12-15T15:40:56.892Z,72.60
2022-12-15T15:43:31.798Z,68.00
2022-12-15T15:46:07.029Z,61.70
2022-12-15T15:48:44.827Z,68.00
2022-12-15T15:51:17.529Z,64.50
2022-12-15T15:53:51.172Z,55.90
2022-12-15T15:56:23.730Z,62.90
2022-12-15T15:58:56.132Z,65.10
2022-12-15T16:01:29.086Z,60.20
2022-12-15T16:04:02.405Z,55.00
2022-12-15T16:06:35.029Z,57.10
2022-12-15T16:09:08.201Z,54.40
2022-12-15T16:11:40.874Z,52.50
2022-12-15T16:14:16.293Z,55.40
2022-12-15T16:16:48.739Z,60.90
2022-12-15T16:19:21.084Z,54.20
2022-12-15T16:21:54.526Z,53.40
2022-12-15T16:24:26.834Z,58.90
2022-12-15T16:26:59.887Z,53.20
2022-12-15T16:29:32.151Z,48.40
2022-12-15T16:32:05.619Z,48.10
2022-12-15T16:34:39.296Z,51.60
2022-12-15T16:37:25.176Z,60.30
2022-12-15T16:39:57.586Z,55.30
2022-12-15T16:42:29.721Z,57.30
2022-12-15T16:45:02.017Z,60.40
2022-12-15T16:47:34.237Z,62.30
2022-12-15T16:50:07.808Z,59.70
2022-12-15T16:52:40.112Z,50.70
2022-12-15T16:55:20.920Z,53.50
2022-12-15T16:57:55.674Z,55.90
2022-12-15T17:00:32.454Z,52.70
2022-12-15T17:03:05.819Z,52.80
2022-12-15T17:05:39.450Z,58.00
2022-12-15T17:08:19.509Z,57.60
2022-12-15T17:10:52.659Z,63.20
2022-12-15T17:13:37.772Z,58.90
2022-12-15T17:16:14.811Z,59.50
2022-12-15T17:18:47.833Z,61.10
2022-12-15T17:21:24.938Z,66.50
2022-12-15T17:24:02.273Z,72.50
2022-12-15T17:26:37.822Z,87.30
2022-12-15T17:29:15.062Z,83.00
2022-12-15T17:31:50.672Z,103.10
2022-12-15T17:34:30.372Z,93.10
2022-12-15T17:37:04.832Z,85.40
2022-12-15T17:39:38.053Z,86.70
2022-12-15T17:42:18.820Z,83.40
2022-12-15T17:44:52.631Z,87.10
2022-12-15T17:47:25.527Z,92.40
2022-12-15T17:50:00.125Z,97.20
2022-12-15T17:52:34.829Z,92.00
2022-12-15T17:55:19.920Z,90.40
2022-12-15T17:57:55.931Z,89.50
2022-12-15T18:00:30.574Z,84.90
2022-12-15T18:03:03.585Z,88.40
2022-12-15T18:05:36.494Z,88.50
2022-12-15T18:08:16.545Z,88.80
2022-12-15T18:10:51.077Z,85.60
2022-12-15T18:13:26.922Z,82.10
2022-12-15T18:16:01.803Z,76.40
2022-12-15T18:18:35.060Z,75.10
2022-12-15T18:21:15.614Z,76.60
2022-12-15T18:23:48.479Z,78.50
2022-12-15T18:26:21.402Z,72.90
2022-12-15T18:28:53.685Z,70.00
2022-12-15T18:31:28.202Z,68.00
2022-12-15T18:34:04.350Z,67.70
2022-12-15T18:36:37.276Z,65.00
2022-12-15T18:39:20.059Z,65.50
2022-12-15T18:44:46.485Z,63.40
2022-12-15T18:47:20.749Z,63.00
2022-12-15T18:49:53.111Z,62.70
2022-12-15T18:52:32.983Z,65.00
2022-12-15T18:55:15.927Z,63.20
2022-12-15T18:57:48.805Z,63.00
2022-12-15T19:00:28.288Z,64.20
2022-12-15T19:03:01.429Z,64.00
2022-12-15T19:05:33.796Z,62.40
2022-12-15T19:08:13.356Z,62.20
2022-12-15T19:10:52.572Z,62.70
2022-12-15T19:13:26.538Z,62.40
2022-12-15T19:15:59.116Z,63.30
2022-12-15T19:18:45.383Z,65.30
2022-12-15T19:21:38.753Z,65.60
2022-12-15T19:24:15.926Z,64.50
2022-12-15T19:26:48.344Z,63.30
2022-12-15T19:29:22.690Z,63.90
2022-12-15T19:31:55.037Z,64.70
2022-12-15T19:34:27.959Z,63.30
2022-12-15T19:37:02.076Z,63.00
2022-12-15T19:39:35.409Z,62.30
2022-12-15T19:42:15.217Z,63.50
2022-12-15T19:44:47.396Z,63.30
2022-12-15T19:47:19.883Z,64.60
2022-12-15T19:49:52.938Z,64.10
2022-12-15T19:52:30.102Z,65.00
2022-12-15T19:55:05.415Z,66.30
2022-12-15T19:57:37.667Z,64.80
2022-12-15T20:00:17.899Z,64.20
2022-12-15T20:02:54.362Z,64.50
2022-12-15T20:05:28.221Z,68.70
2022-12-15T20:08:00.705Z,65.30
2022-12-15T20:10:33.720Z,64.20
2022-12-15T20:13:07.629Z,66.10
2022-12-15T20:15:39.768Z,64.50
2022-12-15T20:18:12.802Z,64.70
2022-12-15T20:20:50.623Z,68.20
2022-12-15T20:23:26.870Z,66.90
2022-12-15T20:28:47.715Z,63.80
2022-12-15T20:31:24.424Z,61.50
2022-12-15T20:33:57.112Z,62.50
2022-12-15T20:36:33.235Z,61.80
2022-12-15T20:39:05.685Z,61.40
2022-12-15T20:41:38.271Z,62.20
2022-12-15T20:44:15.596Z,61.30
2022-12-15T20:46:47.931Z,60.40
2022-12-15T20:49:24.892Z,57.60
2022-12-15T20:51:57.141Z,59.40
2022-12-15T20:54:29.292Z,58.80
2022-12-15T20:57:01.821Z,61.80
2022-12-15T20:59:34.162Z,66.70
2022-12-15T21:02:19.215Z,64.70
2022-12-15T21:04:52.556Z,65.70
2022-12-15T21:07:25.399Z,61.90
2022-12-15T21:09:57.976Z,62.40
2022-12-15T21:12:32.558Z,63.30
2022-12-15T21:15:08.087Z,67.20
2022-12-15T21:17:44.091Z,64.90
2022-12-15T21:20:16.818Z,65.10
2022-12-15T21:22:50.457Z,66.10
2022-12-15T21:25:27.603Z,62.30
2022-12-15T21:28:02.744Z,63.10
2022-12-15T21:30:36.010Z,65.00
2022-12-15T21:33:09.153Z,63.90
2022-12-15T21:35:42.366Z,63.30
2022-12-15T21:38:35.951Z,62.50
2022-12-15T21:41:13.922Z,62.10
2022-12-15T21:43:49.358Z,57.80
2022-12-15T21:46:27.858Z,57.40
2022-12-15T21:49:20.187Z,54.90
2022-12-15T21:51:55.720Z,55.60
2022-12-15T21:54:32.104Z,53.70
2022-12-15T21:57:04.538Z,54.20
2022-12-15T21:59:36.610Z,55.50
2022-12-15T22:02:26.618Z,53.90
2022-12-15T22:04:59.590Z,54.30
2022-12-15T22:07:31.849Z,53.10
2022-12-15T22:10:04.635Z,53.20
2022-12-15T22:12:36.787Z,54.50
2022-12-15T22:15:16.760Z,55.00
2022-12-15T22:17:49.790Z,55.10
2022-12-15T22:20:25.242Z,53.90
2022-12-15T22:22:57.593Z,56.30
2022-12-15T22:25:29.980Z,55.30
2022-12-15T22:28:04.923Z,55.00
2022-12-15T22:30:38.561Z,56.40
2022-12-15T22:33:21.717Z,55.10
2022-12-15T22:35:57.807Z,55.30
2022-12-15T22:38:30.502Z,56.10
2022-12-15T22:41:04.900Z,55.30
2022-12-15T22:43:39.885Z,58.20
2022-12-15T22:46:15.257Z,56.30
2022-12-15T22:48:48.792Z,58.60
2022-12-15T22:51:24.025Z,56.70
2022-12-15T22:53:56.264Z,56.40
2022-12-15T22:56:31.829Z,56.60
2022-12-15T22:59:08.891Z,57.50
2022-12-15T23:01:41.547Z,57.20
2022-12-15T23:04:17.157Z,59.20
2022-12-15T23:06:49.799Z,58.00
2022-12-15T23:09:23.874Z,65.70
2022-12-15T23:11:56.324Z,63.80
2022-12-15T23:14:49.213Z,62.20
2022-12-15T23:17:22.031Z,65.50
2022-12-15T23:19:54.503Z,68.00
2022-12-15T23:25:17.110Z,72.90
2022-12-15T23:27:49.643Z,72.40
2022-12-15T23:30:23.119Z,114.70
2022-12-15T23:32:55.599Z,107.70
2022-12-15T23:35:28.052Z,112.90
2022-12-15T23:38:01.297Z,95.40
2022-12-15T23:40:33.471Z,92.60
2022-12-15T23:43:07.951Z,80.00
2022-12-15T23:45:41.043Z,74.70
2022-12-15T23:48:15.184Z,77.00
2022-12-15T23:50:48.088Z,72.90
2022-12-15T23:53:20.718Z,75.70
2022-12-15T23:55:54.924Z,77.40
2022-12-15T23:58:28.183Z,80.30
